Time;durP1;ratioP1;P1;durP2;ratioP2;P2;SDS_P1;SDS_P2;PMS_P1;PMS_P2;Temp;Humidity;BMP_temperature;BMP_pressure;BME280_temperature;BME280_humidity;BME280_pressure;Samples;Min_cycle;Max_cycle;Signal;HPM_P1;HPM_P2
2024/01/24 00:01:06;;;;;;;0.00;0.00;;;;;;;11.42;100.00;100370.38;4990724;28;20116;-76
2024/01/24 00:03:31;;;;;;;0.00;0.00;;;;;;;11.32;100.00;100373.91;4965106;28;20110;-76
2024/01/24 00:05:56;;;;;;;0.00;0.00;;;;;;;11.31;100.00;100379.66;4979079;28;20030;-78
2024/01/24 00:08:22;;;;;;;0.00;0.00;;;;;;;11.29;100.00;100366.25;4961874;28;20032;-75
2024/01/24 00:10:47;;;;;;;0.00;0.00;;;;;;;11.44;100.00;100375.56;4976147;28;20061;-77
2024/01/24 00:13:13;;;;;;;0.03;0.03;;;;;;;11.45;100.00;100374.47;4951072;28;20037;-76
2024/01/24 00:15:38;;;;;;;0.00;0.00;;;;;;;11.49;100.00;100375.56;4969844;28;20026;-76
2024/01/24 00:18:04;;;;;;;0.08;0.08;;;;;;;11.50;100.00;100371.72;4961007;28;20632;-76
2024/01/24 00:20:29;;;;;;;0.00;0.00;;;;;;;11.50;100.00;100358.84;5001488;28;20054;-76
2024/01/24 00:22:55;;;;;;;0.00;0.00;;;;;;;11.54;100.00;100408.44;4976909;28;20034;-77
2024/01/24 00:25:21;;;;;;;0.00;0.00;;;;;;;11.46;100.00;100401.59;4981876;28;20030;-76
2024/01/24 00:27:47;;;;;;;0.00;0.00;;;;;;;11.42;100.00;100386.78;4989780;28;20022;-75
2024/01/24 00:30:12;;;;;;;0.00;0.00;;;;;;;11.42;100.00;100429.75;4976125;28;20037;-76
2024/01/24 00:32:38;;;;;;;0.00;0.00;;;;;;;11.35;100.00;100414.44;4963520;28;20030;-76
2024/01/24 00:35:04;;;;;;;0.00;0.00;;;;;;;11.35;100.00;100414.44;4966975;28;20023;-77
2024/01/24 00:37:29;;;;;;;0.00;0.00;;;;;;;11.32;100.00;100417.72;4985844;28;20080;-76
2024/01/24 00:39:55;;;;;;;0.00;0.00;;;;;;;11.31;100.00;100418.78;4956065;28;20034;-77
2024/01/24 00:42:20;;;;;;;0.00;0.00;;;;;;;11.28;100.00;100424.00;4988001;28;20032;-77
2024/01/24 00:44:47;;;;;;;0.00;0.00;;;;;;;11.24;100.00;100423.72;4988756;28;20038;-78
2024/01/24 00:47:13;;;;;;;0.00;0.00;;;;;;;11.27;100.00;100423.19;4975737;28;20041;-77
2024/01/24 00:49:38;;;;;;;0.00;0.00;;;;;;;11.22;100.00;100423.16;4986963;28;20030;-80
2024/01/24 00:52:04;;;;;;;0.00;0.00;;;;;;;11.28;100.00;100430.28;4978598;28;20041;-76
2024/01/24 00:54:29;;;;;;;0.00;0.00;;;;;;;11.21;100.00;100428.91;4957542;28;20045;-78
2024/01/24 00:56:55;;;;;;;0.00;0.00;;;;;;;11.15;100.00;100415.19;4975137;28;20380;-77
2024/01/24 00:59:20;;;;;;;0.00;0.00;;;;;;;11.02;100.00;100403.97;4973135;28;20387;-77
2024/01/24 01:01:45;;;;;;;0.00;0.00;;;;;;;11.17;100.00;100439.59;4959975;28;20439;-77
2024/01/24 01:04:11;;;;;;;0.00;0.00;;;;;;;11.18;100.00;100435.75;4958485;28;20606;-77
2024/01/24 01:06:36;;;;;;;0.00;0.00;;;;;;;10.99;100.00;100406.16;4951459;28;20049;-78
2024/01/24 01:09:02;;;;;;;0.00;0.00;;;;;;;11.05;100.00;100452.69;4957592;28;20101;-77
2024/01/24 01:11:28;;;;;;;0.00;0.00;;;;;;;10.92;100.00;100430.22;4967221;28;20058;-76
2024/01/24 01:13:53;;;;;;;0.00;0.00;;;;;;;10.88;100.00;100425.50;4977183;28;20116;-77
2024/01/24 01:16:18;;;;;;;0.00;0.00;;;;;;;10.86;100.00;100430.44;4987268;28;20038;-76
2024/01/24 01:18:44;;;;;;;0.00;0.00;;;;;;;10.96;100.00;100444.97;4974708;28;20030;-79
2024/01/24 01:21:09;;;;;;;0.00;0.00;;;;;;;10.96;100.00;100428.56;4992360;28;20452;-77
2024/01/24 01:23:35;;;;;;;0.00;0.00;;;;;;;10.99;100.00;100436.25;4968209;28;20035;-78
2024/01/24 01:26:00;;;;;;;0.00;0.00;;;;;;;10.95;100.00;100462.50;4967561;28;20444;-79
2024/01/24 01:28:26;;;;;;;0.00;0.00;;;;;;;10.85;100.00;100478.03;4974035;28;20050;-77
2024/01/24 01:30:51;;;;;;;0.00;0.00;;;;;;;10.73;100.00;100494.66;4980556;28;20014;-78
2024/01/24 01:33:17;;;;;;;0.00;0.00;;;;;;;10.49;100.00;100484.13;4980246;28;20033;-77
2024/01/24 01:35:42;;;;;;;0.00;0.00;;;;;;;10.47;100.00;100506.28;4966359;28;20174;-79
2024/01/24 01:38:08;;;;;;;0.00;0.00;;;;;;;10.36;100.00;100512.75;4971550;28;20092;-78
2024/01/24 01:40:33;;;;;;;0.00;0.00;;;;;;;10.25;100.00;100506.38;4986626;28;20026;-78
2024/01/24 01:42:59;;;;;;;0.00;0.00;;;;;;;10.26;100.00;100518.94;5006634;28;20029;-78
2024/01/24 01:45:24;;;;;;;0.00;0.00;;;;;;;10.36;100.00;100539.28;4969565;28;20046;-78
2024/01/24 01:47:54;;;;;;;0.00;0.00;;;;;;;10.23;100.00;100503.06;4976010;28;20038;-78
2024/01/24 01:50:22;;;;;;;0.00;0.00;;;;;;;10.20;100.00;100502.78;4996176;28;20021;-78
2024/01/24 01:52:48;;;;;;;0.00;0.00;;;;;;;10.08;100.00;100498.31;4966732;28;20045;-78
2024/01/24 01:55:14;;;;;;;0.00;0.00;;;;;;;10.22;100.00;100520.56;4990184;28;20018;-77
2024/01/24 01:57:53;;;;;;;;;;;;;;;;;;;;;
2024/01/24 02:00:20;;;;;;;0.00;0.00;;;;;;;10.27;100.00;100536.97;5011319;28;20786;-77
2024/01/24 02:02:47;;;;;;;0.00;0.00;;;;;;;10.28;100.00;100544.09;4976243;28;20036;-77
2024/01/24 02:05:14;;;;;;;0.00;0.00;;;;;;;10.22;100.00;100553.34;4975962;28;20098;-78
2024/01/24 02:07:47;;;;;;;0.00;0.00;;;;;;;10.05;100.00;100544.47;4981610;28;20056;-77
2024/01/24 02:10:15;;;;;;;0.00;0.00;;;;;;;9.93;100.00;100567.28;4972029;28;20058;-79
2024/01/24 02:12:43;;;;;;;0.00;0.00;;;;;;;9.71;100.00;100503.69;4987867;28;20029;-79
2024/01/24 02:15:09;;;;;;;0.00;0.00;;;;;;;9.69;100.00;100541.38;4984729;28;20026;-78
2024/01/24 02:17:35;;;;;;;0.00;0.00;;;;;;;9.79;100.00;100553.22;4974773;28;20096;-77
2024/01/24 02:20:02;;;;;;;0.00;0.00;;;;;;;9.54;100.00;100545.59;4981015;28;20026;-77
2024/01/24 02:22:27;;;;;;;0.00;0.00;;;;;;;9.50;100.00;100544.44;4987774;28;20025;-77
2024/01/24 02:24:53;;;;;;;0.00;0.00;;;;;;;9.53;100.00;100576.69;4978721;28;20034;-79
2024/01/24 02:27:18;;;;;;;0.00;0.00;;;;;;;9.39;100.00;100570.00;4976127;28;20052;-79
2024/01/24 02:29:44;;;;;;;0.00;0.00;;;;;;;9.39;100.00;100553.63;4978361;28;20025;-78
2024/01/24 02:32:09;;;;;;;0.00;0.00;;;;;;;9.26;100.00;100552.91;4967792;28;20026;-79
2024/01/24 02:34:35;;;;;;;0.00;0.00;;;;;;;9.34;100.00;100572.66;4980962;28;20031;-78
2024/01/24 02:37:00;;;;;;;0.00;0.00;;;;;;;9.09;100.00;100571.25;4983932;28;20018;-76
2024/01/24 02:39:25;;;;;;;0.00;0.00;;;;;;;9.36;100.00;100573.19;4979150;28;20031;-78
2024/01/24 02:41:51;;;;;;;0.00;0.00;;;;;;;9.29;100.00;100569.84;4973678;28;20076;-78
2024/01/24 02:44:16;;;;;;;0.00;0.00;;;;;;;9.33;100.00;100595.56;4973390;28;20026;-78
2024/01/24 02:46:42;;;;;;;0.00;0.00;;;;;;;9.33;100.00;100593.66;4990539;28;20404;-77
2024/01/24 02:49:07;;;;;;;0.00;0.00;;;;;;;9.23;100.00;100599.81;4987240;28;20046;-78
2024/01/24 02:51:33;;;;;;;0.00;0.00;;;;;;;9.26;100.00;100623.84;4965460;28;20068;-77
2024/01/24 02:53:58;;;;;;;0.00;0.00;;;;;;;9.19;100.00;100625.94;4955203;28;20469;-78
2024/01/24 02:56:28;;;;;;;0.00;0.00;;;;;;;9.07;100.00;100589.78;4968171;28;20075;-78
2024/01/24 02:58:58;;;;;;;0.10;0.10;;;;;;;9.02;100.00;100595.16;4984616;28;20030;-78
2024/01/24 03:01:24;;;;;;;0.00;0.00;;;;;;;9.06;100.00;100607.22;4982321;28;20018;-77
2024/01/24 03:03:49;;;;;;;0.00;0.00;;;;;;;9.01;100.00;100593.50;5004531;28;20034;-77
2024/01/24 03:06:17;;;;;;;0.00;0.00;;;;;;;9.05;100.00;100619.19;4952132;28;20049;-77
2024/01/24 03:08:50;;;;;;;0.10;0.10;;;;;;;8.95;100.00;100619.03;4978416;28;20164;-77
2024/01/24 03:11:16;;;;;;;0.00;0.00;;;;;;;8.89;100.00;100599.91;4972918;28;20061;-76
2024/01/24 03:13:45;;;;;;;0.00;0.00;;;;;;;8.84;100.00;100618.91;5004080;28;20022;-76
2024/01/24 03:16:11;;;;;;;0.00;0.00;;;;;;;8.91;100.00;100625.00;4993094;28;20044;-78
2024/01/24 03:18:37;;;;;;;0.00;0.00;;;;;;;8.88;100.00;100639.16;4979962;28;20022;-77
2024/01/24 03:21:07;;;;;;;0.00;0.00;;;;;;;8.84;100.00;100629.81;4979493;28;20065;-77
2024/01/24 03:23:42;;;;;;;0.00;0.00;;;;;;;8.86;100.00;100660.41;4965122;28;20107;-78
2024/01/24 03:26:09;;;;;;;0.00;0.00;;;;;;;8.74;100.00;100646.00;4978584;28;20024;-79
2024/01/24 03:28:35;;;;;;;0.00;0.00;;;;;;;8.78;100.00;100641.72;4987743;28;20052;-79
2024/01/24 03:31:02;;;;;;;0.00;0.00;;;;;;;8.72;100.00;100642.72;4982707;28;20450;-79
2024/01/24 03:33:35;;;;;;;0.00;0.00;;;;;;;8.71;100.00;100630.97;4945752;28;20022;-78
2024/01/24 03:36:00;;;;;;;0.00;0.00;;;;;;;8.72;100.00;100661.81;4993151;28;20033;-78
2024/01/24 03:38:28;;;;;;;0.00;0.00;;;;;;;8.84;100.00;100667.97;4997946;28;20725;-77
2024/01/24 03:40:53;;;;;;;0.00;0.00;;;;;;;8.76;100.00;100673.88;4964973;28;20032;-78
2024/01/24 03:43:58;;;;;;;0.00;0.00;;;;;;;8.78;100.00;100679.88;4995316;28;20108;-79
2024/01/24 03:46:39;;;;;;;0.00;0.00;;;;;;;8.56;100.00;100675.16;4986566;28;20018;-79
2024/01/24 03:49:49;;;;;;;0.00;0.00;;;;;;;8.48;100.00;100623.78;4983243;28;20473;-80
2024/01/24 03:52:33;;;;;;;0.00;0.00;;;;;;;8.47;100.00;100630.31;4906856;29;20110;-79
2024/01/24 03:58:28;;;;;;;0.00;0.00;;;;;;;8.40;100.00;100643.25;4899032;29;20057;-78
2024/01/24 04:01:05;;;;;;;0.00;0.00;;;;;;;8.44;100.00;100676.25;4894050;29;20643;-78
2024/01/24 04:03:30;;;;;;;0.00;0.00;;;;;;;8.66;100.00;100671.78;4981940;28;20132;-79
2024/01/24 04:12:53;;;;;;;0.00;0.00;;;;;;;8.67;100.00;100667.16;4892793;29;20045;-80
2024/01/24 04:15:27;;;;;;;0.00;0.00;;;;;;;8.82;100.00;100716.50;4972546;28;20040;-80
2024/01/24 04:21:03;;;;;;;0.00;0.00;;;;;;;8.88;100.00;100714.69;5003442;28;20030;-79
2024/01/24 04:26:51;;;;;;;0.00;0.00;;;;;;;8.96;100.00;100751.63;4993201;28;20053;-77
2024/01/24 04:29:19;;;;;;;0.00;0.00;;;;;;;8.94;100.00;100738.25;4972080;28;20042;-77
2024/01/24 04:31:47;;;;;;;0.00;0.00;;;;;;;9.01;100.00;100727.16;4986574;28;20447;-77
2024/01/24 04:34:20;;;;;;;0.00;0.00;;;;;;;8.95;100.00;100734.44;5003799;28;20033;-77
2024/01/24 04:36:46;;;;;;;0.00;0.00;;;;;;;8.91;100.00;100750.47;4984439;28;20041;-78
2024/01/24 04:39:11;;;;;;;0.00;0.00;;;;;;;9.04;100.00;100749.31;4985201;28;20022;-78
2024/01/24 04:41:37;;;;;;;0.00;0.00;;;;;;;9.03;100.00;100774.13;4953131;28;20563;-78
2024/01/24 04:44:03;;;;;;;0.00;0.00;;;;;;;9.03;100.00;100806.84;4958353;28;20034;-78
2024/01/24 04:46:29;;;;;;;0.00;0.00;;;;;;;8.95;100.00;100793.59;4979842;28;20093;-78
2024/01/24 04:48:54;;;;;;;0.00;0.00;;;;;;;8.96;100.00;100812.44;4979809;28;20523;-80
2024/01/24 04:51:21;;;;;;;0.00;0.00;;;;;;;8.87;100.00;100822.94;4961097;28;20108;-78
2024/01/24 04:53:47;;;;;;;0.00;0.00;;;;;;;8.86;100.00;100834.09;4992129;28;20026;-78
2024/01/24 04:56:12;;;;;;;0.00;0.00;;;;;;;8.82;100.00;100827.47;4985094;28;20030;-78
2024/01/24 04:58:40;;;;;;;0.00;0.00;;;;;;;8.88;100.00;100849.13;4962537;28;20105;-78
2024/01/24 05:01:06;;;;;;;0.00;0.00;;;;;;;8.90;100.00;100846.97;4989862;28;20018;-77
2024/01/24 05:03:31;;;;;;;0.00;0.00;;;;;;;8.86;100.00;100828.63;4951882;28;20030;-77
2024/01/24 05:05:57;;;;;;;0.00;0.00;;;;;;;8.91;100.00;100836.94;4979781;28;20096;-77
2024/01/24 05:08:24;;;;;;;0.00;0.00;;;;;;;8.95;100.00;100848.16;4977603;28;20079;-76
2024/01/24 05:10:59;;;;;;;0.00;0.00;;;;;;;8.84;100.00;100842.53;4974056;28;20215;-76
2024/01/24 05:13:24;;;;;;;0.00;0.00;;;;;;;8.80;100.00;100846.78;4990933;28;20389;-76
2024/01/24 05:15:50;;;;;;;0.00;0.00;;;;;;;8.76;100.00;100851.09;4978503;28;20038;-76
2024/01/24 05:18:15;;;;;;;0.00;0.00;;;;;;;8.73;100.00;100859.75;4957776;28;20941;-77
2024/01/24 05:20:41;;;;;;;0.00;0.00;;;;;;;8.69;100.00;100869.50;4974226;28;20026;-80
2024/01/24 05:23:09;;;;;;;0.00;0.00;;;;;;;8.51;100.00;100855.00;4985454;28;20003;-77
2024/01/24 05:25:35;;;;;;;0.00;0.00;;;;;;;8.53;100.00;100865.66;4980266;28;20464;-78
2024/01/24 05:28:01;;;;;;;0.00;0.00;;;;;;;8.34;100.00;100845.88;4987866;28;20018;-78
2024/01/24 05:30:26;;;;;;;0.00;0.00;;;;;;;8.35;100.00;100862.00;4980599;28;20026;-78
2024/01/24 05:32:58;;;;;;;0.00;0.00;;;;;;;8.33;100.00;100846.94;4990150;28;20456;-79
2024/01/24 05:35:24;;;;;;;0.00;0.00;;;;;;;8.18;100.00;100817.47;4992426;28;20030;-79
2024/01/24 05:37:49;;;;;;;0.00;0.00;;;;;;;8.42;100.00;100867.28;4993260;28;20067;-78
2024/01/24 05:40:15;;;;;;;0.00;0.00;;;;;;;8.50;100.00;100899.66;4990633;28;20023;-78
2024/01/24 05:42:40;;;;;;;0.00;0.00;;;;;;;8.38;100.00;100893.34;4981137;28;20022;-79
2024/01/24 05:45:06;;;;;;;0.00;0.00;;;;;;;8.36;100.00;100895.50;4970834;28;20499;-80
2024/01/24 05:47:35;;;;;;;0.00;0.00;;;;;;;8.26;100.00;100855.22;4995250;28;20030;-78
2024/01/24 05:50:13;;;;;;;0.00;0.00;;;;;;;8.37;100.00;100913.53;4986824;28;20117;-79
2024/01/24 05:52:45;;;;;;;0.00;0.00;;;;;;;8.21;100.00;100907.72;4983336;28;20037;-78
2024/01/24 05:55:11;;;;;;;0.00;0.00;;;;;;;8.37;100.00;100935.31;4981729;28;20027;-78
2024/01/24 05:57:45;;;;;;;0.00;0.00;;;;;;;8.13;100.00;100901.81;4992266;28;21760;-78
2024/01/24 06:00:17;;;;;;;0.00;0.00;;;;;;;8.14;100.00;100914.38;4987055;28;20073;-80
2024/01/24 06:02:43;;;;;;;0.00;0.00;;;;;;;7.97;100.00;100898.75;4983525;28;20759;-79
2024/01/24 06:05:11;;;;;;;0.00;0.00;;;;;;;8.07;100.00;100925.38;5001649;28;20006;-79
2024/01/24 06:07:48;;;;;;;0.00;0.00;;;;;;;8.06;100.00;100961.88;4980369;28;20139;-77
2024/01/24 06:10:22;;;;;;;0.00;0.00;;;;;;;8.15;100.00;100970.53;4984612;28;20050;-78
2024/01/24 06:12:47;;;;;;;0.00;0.00;;;;;;;8.12;100.00;100955.47;4996786;28;20040;-77
2024/01/24 06:15:13;;;;;;;0.00;0.00;;;;;;;7.81;100.00;100911.19;4992456;28;20018;-78
2024/01/24 06:17:38;;;;;;;0.00;0.00;;;;;;;8.11;100.00;100959.25;5011936;28;20072;-77
2024/01/24 06:20:06;;;;;;;0.00;0.00;;;;;;;8.08;100.00;100986.16;4965465;28;20044;-77
2024/01/24 06:22:31;;;;;;;0.00;0.00;;;;;;;8.05;100.00;100990.16;4989522;28;20030;-78
2024/01/24 06:24:57;;;;;;;0.00;0.00;;;;;;;7.98;100.00;100992.16;4950891;28;20034;-80
2024/01/24 06:27:23;;;;;;;0.00;0.00;;;;;;;7.96;100.00;100999.75;4991064;28;20030;-77
2024/01/24 06:29:49;;;;;;;0.00;0.00;;;;;;;7.99;100.00;101027.34;4967898;28;20026;-79
2024/01/24 06:32:15;;;;;;;0.00;0.00;;;;;;;7.81;100.00;100998.31;4964489;28;20035;-78
2024/01/24 06:34:40;;;;;;;0.00;0.00;;;;;;;7.79;100.00;101005.03;4995688;28;20026;-80
2024/01/24 06:37:06;;;;;;;0.00;0.00;;;;;;;8.00;100.00;101042.63;4992983;28;20023;-82
2024/01/24 06:39:32;;;;;;;0.00;0.00;;;;;;;7.97;100.00;101055.88;4997086;28;20439;-80
2024/01/24 06:42:25;;;;;;;;;;;;;;;;;;;;;
2024/01/24 06:44:54;;;;;;;0.00;0.00;;;;;;;7.84;100.00;101057.75;4984734;28;20038;-80
2024/01/24 06:47:24;;;;;;;0.10;0.10;;;;;;;7.73;100.00;101049.53;4980361;28;20037;-80
2024/01/24 06:49:50;;;;;;;0.00;0.00;;;;;;;7.93;100.00;101079.19;4987388;28;20030;-81
2024/01/24 06:52:16;;;;;;;0.00;0.00;;;;;;;7.83;100.00;101066.97;4966701;28;20034;-80
2024/01/24 06:54:41;;;;;;;0.00;0.00;;;;;;;7.92;100.00;101077.53;4972496;28;20009;-80
2024/01/24 06:57:07;;;;;;;0.10;0.10;;;;;;;7.90;100.00;101082.38;4991912;28;20034;-79
2024/01/24 06:59:33;;;;;;;0.00;0.00;;;;;;;7.89;100.00;101091.63;4976240;28;20029;-76
2024/01/24 07:01:59;;;;;;;0.00;0.00;;;;;;;7.86;100.00;101091.00;4988355;28;20045;-78
2024/01/24 07:04:25;;;;;;;0.00;0.00;;;;;;;7.78;100.00;101101.38;4992497;28;20031;-78
2024/01/24 07:06:51;;;;;;;0.00;0.00;;;;;;;7.86;100.00;101112.78;4981767;28;20026;-77
2024/01/24 07:09:19;;;;;;;0.00;0.00;;;;;;;7.92;100.00;101123.84;4974561;28;20033;-78
2024/01/24 07:11:44;;;;;;;0.00;0.00;;;;;;;7.75;100.00;101119.00;4972365;28;20089;-77
2024/01/24 07:14:14;;;;;;;0.10;0.10;;;;;;;7.80;100.00;101129.25;4976454;28;20054;-80
2024/01/24 07:16:41;;;;;;;0.00;0.00;;;;;;;7.81;100.00;101133.59;4973767;28;20128;-78
2024/01/24 07:19:06;;;;;;;0.00;0.00;;;;;;;7.68;100.00;101134.59;4971318;28;20033;-77
2024/01/24 07:21:32;;;;;;;0.00;0.00;;;;;;;7.61;100.00;101120.28;4962337;28;20034;-78
2024/01/24 07:23:57;;;;;;;0.00;0.00;;;;;;;7.60;100.00;101137.66;4962041;28;20122;-80
2024/01/24 07:26:23;;;;;;;0.10;0.10;;;;;;;7.65;100.00;101151.41;4950846;28;20031;-78
2024/01/24 07:33:07;;;;;;;0.00;0.00;;;;;;;7.66;100.00;101174.84;4934207;29;20103;-77
2024/01/24 07:35:55;;;;;;;0.00;0.00;;;;;;;7.49;100.00;101150.13;4922955;28;20031;-76
2024/01/24 07:38:20;;;;;;;0.00;0.00;;;;;;;7.62;100.00;101166.31;4986715;28;20037;-76
2024/01/24 07:40:46;;;;;;;0.00;0.00;;;;;;;7.75;100.00;101176.19;4945822;28;20026;-78
2024/01/24 07:43:11;;;;;;;0.00;0.00;;;;;;;7.64;100.00;101166.09;4982373;28;20046;-78
2024/01/24 07:45:36;;;;;;;0.00;0.00;;;;;;;7.77;100.00;101190.41;4937121;28;20026;-76
2024/01/24 07:48:02;;;;;;;0.00;0.00;;;;;;;7.71;100.00;101190.50;4956763;28;20030;-78
2024/01/24 07:50:31;;;;;;;0.00;0.00;;;;;;;7.80;100.00;101209.03;4945081;28;20465;-77
2024/01/24 07:52:57;;;;;;;0.00;0.00;;;;;;;7.75;100.00;101217.03;4977781;28;20114;-80
2024/01/24 07:55:22;;;;;;;0.00;0.00;;;;;;;7.75;100.00;101214.31;4975958;28;20050;-79
2024/01/24 07:57:50;;;;;;;0.00;0.00;;;;;;;7.81;100.00;101227.03;4968791;28;20477;-78
2024/01/24 08:00:18;;;;;;;0.00;0.00;;;;;;;7.92;100.00;101244.47;4961145;28;20040;-76
2024/01/24 08:02:44;;;;;;;0.00;0.00;;;;;;;7.79;100.00;101228.31;4947163;28;20101;-76
2024/01/24 08:05:17;;;;;;;0.00;0.00;;;;;;;7.92;100.00;101260.00;4972984;28;20038;-76
2024/01/24 08:07:47;;;;;;;0.00;0.00;;;;;;;7.93;100.00;101267.94;4966113;28;20054;-80
2024/01/24 08:10:18;;;;;;;0.00;0.00;;;;;;;7.83;100.00;101262.19;4978040;28;20062;-77
2024/01/24 08:12:45;;;;;;;0.00;0.00;;;;;;;7.79;100.00;101255.53;4993933;28;20382;-77
2024/01/24 08:15:11;;;;;;;0.00;0.00;;;;;;;7.65;100.00;101230.34;4977882;28;20042;-78
2024/01/24 08:17:36;;;;;;;0.00;0.00;;;;;;;7.76;100.00;101250.56;5018754;28;20033;-77
2024/01/24 08:20:04;;;;;;;0.00;0.00;;;;;;;7.73;100.00;101240.94;4972187;28;20050;-77
2024/01/24 08:22:30;;;;;;;0.10;0.10;;;;;;;7.71;100.00;101237.63;4978029;28;20108;-78
2024/01/24 08:24:57;;;;;;;0.00;0.00;;;;;;;7.81;100.00;101265.16;4999013;28;20010;-77
2024/01/24 08:27:23;;;;;;;0.00;0.00;;;;;;;7.80;100.00;101247.13;4989232;28;20022;-77
2024/01/24 08:29:48;;;;;;;0.00;0.00;;;;;;;7.96;100.00;101266.66;5005859;28;20033;-77
2024/01/24 08:32:14;;;;;;;0.00;0.00;;;;;;;8.01;100.00;101250.44;4990322;28;20021;-76
2024/01/24 08:34:39;;;;;;;0.00;0.00;;;;;;;8.14;100.00;101265.81;4958644;28;20057;-78
2024/01/24 08:37:05;;;;;;;0.10;0.10;;;;;;;8.16;100.00;101260.94;4962847;28;20034;-77
2024/01/24 08:39:32;;;;;;;0.10;0.10;;;;;;;8.17;100.00;101262.63;4972170;28;20380;-76
2024/01/24 08:42:00;;;;;;;0.00;0.00;;;;;;;8.27;100.00;101267.53;4969129;28;20664;-77
2024/01/24 08:44:44;;;;;;;0.00;0.00;;;;;;;8.18;100.00;101245.22;4964333;28;20129;-76
2024/01/24 08:47:10;;;;;;;0.00;0.00;;;;;;;8.39;100.00;101252.03;4963063;28;20090;-75
2024/01/24 08:49:36;;;;;;;0.10;0.10;;;;;;;8.61;100.00;101282.38;4955440;28;20037;-77
2024/01/24 08:52:02;;;;;;;0.10;0.10;;;;;;;8.68;100.00;101279.56;4969955;28;20389;-77
2024/01/24 08:54:27;;;;;;;0.00;0.00;;;;;;;8.75;100.00;101283.03;4971199;28;20030;-78
2024/01/24 08:56:53;;;;;;;0.00;0.00;;;;;;;8.90;100.00;101272.50;4975522;28;20488;-76
2024/01/24 08:59:21;;;;;;;0.00;0.00;;;;;;;9.04;100.00;101289.50;4971763;28;20061;-76
2024/01/24 09:01:46;;;;;;;0.00;0.00;;;;;;;9.17;100.00;101299.38;4987369;28;20480;-78
2024/01/24 09:04:12;;;;;;;0.00;0.00;;;;;;;9.18;100.00;101301.00;4965162;28;20050;-76
2024/01/24 09:06:58;;;;;;;0.00;0.00;;;;;;;9.23;100.00;101298.41;4960162;28;20030;-77
2024/01/24 09:09:25;;;;;;;0.00;0.00;;;;;;;9.22;100.00;101288.56;4971199;28;20095;-78
2024/01/24 09:11:57;;;;;;;0.00;0.00;;;;;;;9.38;100.00;101311.59;4988159;28;20029;-78
2024/01/24 09:14:26;;;;;;;0.00;0.00;;;;;;;9.53;100.00;101326.69;5007577;28;20104;-77
2024/01/24 09:16:52;;;;;;;0.00;0.00;;;;;;;9.56;100.00;101316.13;4988348;28;20134;-77
2024/01/24 09:19:18;;;;;;;0.00;0.00;;;;;;;9.92;100.00;101333.31;4983857;28;20078;-77
2024/01/24 09:21:43;;;;;;;0.00;0.00;;;;;;;10.18;100.00;101342.06;4972932;28;20041;-77
2024/01/24 09:24:09;;;;;;;0.00;0.00;;;;;;;10.58;100.00;101365.88;4977300;28;20410;-76
2024/01/24 09:26:38;;;;;;;0.00;0.00;;;;;;;10.97;100.00;101341.44;4979269;28;20014;-77
2024/01/24 09:29:04;;;;;;;0.00;0.00;;;;;;;12.28;100.00;101367.84;5002037;28;20030;-77
2024/01/24 09:31:29;;;;;;;0.00;0.00;;;;;;;13.02;97.91;101361.00;4990432;28;20487;-76
2024/01/24 09:33:55;;;;;;;0.00;0.00;;;;;;;13.77;94.34;101366.63;4968417;28;20045;-76
2024/01/24 09:36:23;;;;;;;0.00;0.00;;;;;;;14.10;83.84;101362.66;4975113;28;20110;-77
2024/01/24 09:38:48;;;;;;;0.10;0.10;;;;;;;14.25;86.98;101370.19;4974416;28;20037;-75
2024/01/24 09:41:20;;;;;;;0.00;0.00;;;;;;;14.29;83.47;101364.97;4965889;28;20026;-75
2024/01/24 09:43:47;;;;;;;0.00;0.00;;;;;;;14.28;84.15;101371.56;4982793;28;20026;-75
2024/01/24 09:46:18;;;;;;;0.00;0.00;;;;;;;14.96;80.83;101381.75;5009115;28;20053;-77
2024/01/24 09:48:45;;;;;;;0.00;0.00;;;;;;;15.66;74.31;101393.09;4969828;28;20038;-77
2024/01/24 09:51:11;;;;;;;0.00;0.00;;;;;;;15.77;73.99;101388.41;5002057;28;20397;-77
2024/01/24 09:53:41;;;;;;;0.00;0.00;;;;;;;15.13;77.63;101420.91;4976547;28;20040;-76
2024/01/24 09:56:08;;;;;;;0.00;0.00;;;;;;;14.44;80.59;101420.09;4993450;28;20038;-77
2024/01/24 09:58:35;;;;;;;0.00;0.00;;;;;;;13.93;81.36;101417.88;4987979;28;20018;-77
2024/01/24 10:01:04;;;;;;;0.00;0.00;;;;;;;13.52;86.38;101411.22;4980228;28;20038;-76
2024/01/24 10:03:31;;;;;;;0.00;0.00;;;;;;;13.86;87.86;101413.69;4980380;28;20026;-76
2024/01/24 10:05:58;;;;;;;0.00;0.00;;;;;;;14.62;79.78;101418.81;4980239;28;20088;-76
2024/01/24 10:08:23;;;;;;;0.00;0.00;;;;;;;14.79;76.92;101426.88;4983045;28;20090;-76
2024/01/24 10:10:48;;;;;;;0.00;0.00;;;;;;;14.53;78.91;101449.84;4969227;28;20521;-76
2024/01/24 10:13:14;;;;;;;0.00;0.00;;;;;;;13.98;80.81;101443.75;4957355;28;20014;-77
2024/01/24 10:15:39;;;;;;;0.00;0.00;;;;;;;13.87;85.12;101448.31;4972819;28;20023;-77
2024/01/24 10:18:06;;;;;;;0.00;0.00;;;;;;;13.73;86.44;101454.28;4970985;28;20616;-76
2024/01/24 10:20:32;;;;;;;0.00;0.00;;;;;;;13.39;84.84;101460.03;4986707;28;20030;-78
2024/01/24 10:22:59;;;;;;;0.00;0.00;;;;;;;13.15;87.71;101469.63;4966254;28;20032;-77
2024/01/24 10:25:27;;;;;;;0.00;0.00;;;;;;;12.85;88.18;101462.66;4983098;28;20110;-77
2024/01/24 10:27:54;;;;;;;0.00;0.00;;;;;;;12.67;93.17;101486.59;4992953;28;20026;-76
2024/01/24 10:30:22;;;;;;;0.00;0.00;;;;;;;12.64;97.87;101476.13;5009737;28;20358;-75
2024/01/24 10:32:47;;;;;;;0.00;0.00;;;;;;;12.46;96.96;101477.28;4997332;28;20045;-76
2024/01/24 10:35:14;;;;;;;0.00;0.00;;;;;;;12.44;96.84;101497.81;4973524;28;20023;-76
2024/01/24 10:37:41;;;;;;;0.00;0.00;;;;;;;12.07;98.39;101493.69;4979541;28;20091;-77
2024/01/24 10:40:13;;;;;;;0.00;0.00;;;;;;;11.99;100.00;101489.47;4977475;28;20026;-76
2024/01/24 10:42:41;;;;;;;0.00;0.00;;;;;;;11.90;100.00;101492.84;4979281;28;20025;-77
2024/01/24 10:45:10;;;;;;;0.00;0.00;;;;;;;11.80;100.00;101482.56;5000673;28;20492;-77
2024/01/24 10:47:36;;;;;;;0.00;0.00;;;;;;;11.95;100.00;101490.22;4985280;28;20030;-78
2024/01/24 10:50:12;;;;;;;0.00;0.00;;;;;;;11.98;100.00;101490.53;4987758;28;20037;-77
2024/01/24 10:52:42;;;;;;;0.00;0.00;;;;;;;12.18;100.00;101494.69;4994990;28;20006;-77
2024/01/24 10:55:11;;;;;;;0.00;0.00;;;;;;;12.29;100.00;101469.06;4980835;28;20042;-77
2024/01/24 10:57:40;;;;;;;0.00;0.00;;;;;;;12.43;100.00;101488.75;4991450;28;20026;-78
2024/01/24 11:00:09;;;;;;;0.00;0.00;;;;;;;12.52;99.04;101502.88;4983947;28;20030;-78
2024/01/24 11:02:53;;;;;;;0.00;0.00;;;;;;;12.17;99.00;101454.63;4981802;28;20061;-78
2024/01/24 11:08:27;;;;;;;0.00;0.00;;;;;;;12.35;97.55;101492.75;4986413;28;19910;-75
2024/01/24 11:10:56;;;;;;;0.00;0.00;;;;;;;12.09;93.52;101496.19;5006074;28;20077;-78
2024/01/24 11:13:23;;;;;;;0.00;0.00;;;;;;;11.95;99.46;101496.53;5002755;28;20017;-76
2024/01/24 11:15:54;;;;;;;0.00;0.00;;;;;;;11.83;99.78;101476.56;4990422;28;20507;-76
2024/01/24 11:18:32;;;;;;;0.00;0.00;;;;;;;11.99;99.16;101505.91;4981260;28;20010;-76
2024/01/24 11:20:59;;;;;;;0.00;0.00;;;;;;;11.95;99.91;101496.53;4984939;28;20786;-76
2024/01/24 11:23:44;;;;;;;0.00;0.00;;;;;;;11.64;94.02;101489.66;4991651;28;20014;-77
2024/01/24 11:26:11;;;;;;;0.00;0.00;;;;;;;11.53;95.14;101488.63;5003806;28;20050;-75
2024/01/24 11:28:38;;;;;;;0.00;0.00;;;;;;;11.47;93.78;101504.16;5005958;28;20030;-76
2024/01/24 11:31:14;;;;;;;0.00;0.00;;;;;;;11.59;94.19;101495.88;4967063;28;20097;-77
2024/01/24 11:34:07;;;;;;;0.00;0.00;;;;;;;11.88;90.02;101534.19;4989804;28;20108;-76
2024/01/24 11:36:51;;;;;;;0.00;0.00;;;;;;;11.62;93.75;101506.34;4993021;28;20026;-75
2024/01/24 11:39:28;;;;;;;0.00;0.00;;;;;;;11.84;93.42;101524.78;5002377;28;20014;-78
2024/01/24 11:41:54;;;;;;;0.00;0.00;;;;;;;12.16;97.25;101502.31;4990878;28;20109;-78
2024/01/24 11:44:20;;;;;;;0.00;0.00;;;;;;;13.05;95.37;101512.34;4987389;28;20058;-77
2024/01/24 11:46:45;;;;;;;0.00;0.00;;;;;;;13.82;83.70;101528.84;4987905;28;20023;-78
2024/01/24 11:49:11;;;;;;;0.00;0.00;;;;;;;13.43;83.96;101535.34;4955986;28;20026;-77
2024/01/24 11:51:36;;;;;;;0.00;0.00;;;;;;;13.46;88.26;101530.41;4980874;28;20030;-77
2024/01/24 11:54:02;;;;;;;0.00;0.00;;;;;;;13.80;90.87;101525.53;4974828;28;20025;-78